• Join FlightAware (Why Join?)
  • Login
  • US Flag 
02:43PM EDT


 

Airport Tracker/Info


-or-


 

Live Flight TrackerFlight Track Log ✈ N373LD ✈ 18-Sep-2013 ✈ KMLS - KCOD

Flight Track Log - Related Links

Times and Time Zones

All times are in EDT time to prevent confusion due to time zone crossing. See the N373LD flight status page for this flight to view local times or setup timezone preferences in your user account.

Time Position Orientation Groundspeed Altitude Reporting Facility
EDT Latitude Longitude Course Direction KTS MPH feet Rate Location/Type
03:33PM 46.2622 -106.1839 231° Southwest 149 171 11,600  Level Salt Lake Center
03:34PM 46.2381 -106.2275 231° Southwest 145 167 13,000 1,200 Climbing Salt Lake Center
03:35PM 46.2139 -106.2742 233° Southwest 143 165 14,200 1,200 Climbing Salt Lake Center
03:36PM 46.1828 -106.3233 228° Southwest 137 158 15,500 1,140 Climbing Salt Lake Center
03:37PM 46.1564 -106.3719 232° Southwest 147 169 16,600 1,260 Climbing Salt Lake Center
03:38PM 46.1286 -106.4178 229° Southwest 150 173 18,200 1,260 Climbing Salt Lake Center
03:39PM 46.1014 -106.4631 229° Southwest 148 170 19,300 780 Climbing Salt Lake Center
03:40PM 46.0722 -106.5125 230° Southwest 157 181 19,900 300 Climbing Salt Lake Center
03:41PM 46.0383 -106.5708 230° Southwest 178 205 20,000  Climbing Salt Lake Center
03:42PM 45.9939 -106.6467 230° Southwest 200 230 20,000  Level Salt Lake Center
03:44PM 45.9397 -106.7193 223° Southwest  Level FlightAware Approximate
03:47PM 45.8158 -106.9436 229° Southwest 181 208 20,000  Level Salt Lake Center
03:48PM 45.7769 -107.0044 228° Southwest 175 201 20,000  Level Salt Lake Center
03:49PM 45.7439 -107.0594 229° Southwest 177 204 20,000  Level Salt Lake Center
03:50PM 45.7100 -107.1164 230° Southwest 182 209 20,000  Level Salt Lake Center
03:51PM 45.6906 -107.1236 229° Southwest  Level FlightAware Approximate
03:51PM 45.6767 -107.1761 231° Southwest 190 219 20,000  Level Salt Lake Center
03:52PM 45.6554 -107.1813 229° Southwest  Level FlightAware Approximate
03:52PM 45.6419 -107.2308 228° Southwest 187 215 20,000  Level Salt Lake Center
03:53PM 45.6202 -107.2390 229° Southwest  Level FlightAware Approximate
03:53PM 45.6081 -107.2892 230° Southwest 190 219 20,000  Level Salt Lake Center
03:55PM 45.5653 -107.3583 229° Southwest 193 222 20,000  Level Salt Lake Center
03:56PM 45.5322 -107.4139 230° Southwest 186 214 20,000  Level Salt Lake Center
03:57PM 45.4997 -107.4672 229° Southwest 180 207 20,000  Level Salt Lake Center
03:58PM 45.4661 -107.5214 229° Southwest 183 211 20,000  Level Salt Lake Center
03:59PM 45.4319 -107.5764 228° Southwest 176 203 20,000  Level Salt Lake Center
04:00PM 45.3964 -107.6350 229° Southwest 183 211 20,000  Level Salt Lake Center
04:01PM 45.3589 -107.6950 228° Southwest 201 231 20,000  Level Salt Lake Center
04:02PM 45.3200 -107.7572 228° Southwest 196 226 20,000  Level Salt Lake Center
04:03PM 45.2881 -107.8089 229° Southwest 180 207 20,000  Level Salt Lake Center
04:04PM 45.2519 -107.8694 230° Southwest 186 214 20,000  Level Salt Lake Center
04:05PM 45.2147 -107.9289 228° Southwest 200 230 20,000  Level Salt Lake Center
04:06PM 45.1803 -107.9847 229° Southwest 192 221 20,000  Level Salt Lake Center
04:07PM 45.1439 -108.0417 228° Southwest 184 212 20,000  Level Salt Lake Center
04:08PM 45.1106 -108.0961 229° Southwest 187 215 20,000  Level Salt Lake Center
04:09PM 45.0747 -108.1569 230° Southwest 191 220 20,000  Level Salt Lake Center
04:10PM 45.0397 -108.2128 228° Southwest 191 220 20,000  Level Salt Lake Center
04:11PM 45.0061 -108.2675 229° Southwest 187 215 20,000  Level Salt Lake Center
04:12PM 44.9717 -108.3217 228° Southwest 187 215 20,000  Level Salt Lake Center
04:13PM 44.9389 -108.3742 229° Southwest 183 211 20,000  Level Salt Lake Center
04:14PM 44.9003 -108.4342 228° Southwest 175 201 20,000  Level Salt Lake Center
04:15PM 44.8667 -108.4878 229° Southwest 180 207 20,000  Level Salt Lake Center
04:16PM 44.8328 -108.5397 227° Southwest 181 208 20,000 -540 Level Salt Lake Center
04:17PM 44.7986 -108.5931 228° Southwest 183 211 19,000 -1,320 Descending Salt Lake Center
04:18PM 44.7508 -108.6381 214° Southwest 201 231 17,400 -1,620 Descending Salt Lake Center
04:19PM 44.7028 -108.6778 210° Southwest 205 236 15,700 -1,980 Descending Salt Lake Center
04:20PM 44.6639 -108.7492 233° Southwest 204 235 13,400 -1,920 Descending Salt Lake Center
04:21PM 44.6344 -108.8144 238° Southwest 202 232 11,800 -1,620 Descending Salt Lake Center
04:23PM 44.5921 -108.8909 232° Southwest  Level FlightAware Approximate
04:30PM 44.5167 -109.0167 227° Southwest  Level FlightAware Approximate
04:31PM 44.5202 -109.0238 227° Southwest  Level Estimated
04:32PM 44.5167 -109.0167 227° Southwest  Level FlightAware Approximate
04:33PM 44.5202 -109.0238 227° Southwest  Level Estimated
04:34PM 44.5167 -109.0167 227° Southwest  Level FlightAware Approximate
04:35PM 44.5202 -109.0238 227° Southwest  Level Estimated
04:36PM 44.5167 -109.0167 227° Southwest  Level FlightAware Approximate
04:37PM 44.5202 -109.0238 227° Southwest  Level Estimated
04:38PM 44.5167 -109.0167 227° Southwest  Level FlightAware Approximate
04:39PM 44.5202 -109.0238 227° Southwest  Level Estimated
04:40PM 44.5167 -109.0167 227° Southwest  Level FlightAware Approximate